createdAt,value
2023-08-08T00:00:01.766Z,98614.38
2023-08-08T00:02:33.374Z,98613.03
2023-08-08T00:05:01.108Z,98603.13
2023-08-08T00:07:31.377Z,98614.31
2023-08-08T00:09:58.688Z,98596.56
2023-08-08T00:12:26.207Z,98606.75
2023-08-08T00:14:54.913Z,98592.91
2023-08-08T00:17:22.066Z,98585.03
2023-08-08T00:19:49.504Z,98594.97
2023-08-08T00:22:16.995Z,98598.66
2023-08-08T00:24:44.241Z,98587.66
2023-08-08T00:27:11.505Z,98579.88
2023-08-08T00:29:38.886Z,98575.16
2023-08-08T00:32:08.134Z,98578.03
2023-08-08T00:34:35.619Z,98567.84
2023-08-08T00:37:03.048Z,98559.25
2023-08-08T00:39:30.306Z,98557.97
2023-08-08T00:41:57.899Z,98542.50
2023-08-08T00:44:25.617Z,98539.63
2023-08-08T00:46:53.156Z,98522.94
2023-08-08T00:49:22.225Z,98543.78
2023-08-08T00:51:49.625Z,98557.81
2023-08-08T00:54:18.484Z,98558.84
2023-08-08T00:56:45.750Z,98565.31
2023-08-08T00:59:15.063Z,98544.69
2023-08-08T01:01:42.685Z,98543.09
2023-08-08T01:04:10.329Z,98547.25
2023-08-08T01:06:45.136Z,98539.94
2023-08-08T01:09:19.235Z,98551.91
2023-08-08T01:11:49.779Z,98540.16
2023-08-08T01:14:18.465Z,98534.41
2023-08-08T01:16:46.156Z,98532.53
2023-08-08T01:19:22.294Z,98538.53
2023-08-08T01:21:54.465Z,98547.59
2023-08-08T01:24:24.676Z,98530.91
2023-08-08T01:26:52.077Z,98537.38
2023-08-08T01:29:19.773Z,98532.16
2023-08-08T01:31:46.988Z,98524.81
2023-08-08T01:34:15.473Z,98530.25
2023-08-08T01:36:49.032Z,98537.78
2023-08-08T01:39:21.467Z,98529.72
2023-08-08T01:41:54.047Z,98533.09
2023-08-08T01:44:22.225Z,98528.63
2023-08-08T01:46:49.685Z,98537.66
2023-08-08T01:49:17.025Z,98535.00
2023-08-08T01:51:44.315Z,98532.09
2023-08-08T01:54:11.814Z,98538.84
2023-08-08T01:56:39.081Z,98534.34
2023-08-08T01:59:08.143Z,98530.91
2023-08-08T02:01:36.507Z,98539.19
2023-08-08T02:04:03.895Z,98536.34
2023-08-08T02:06:31.167Z,98535.81
2023-08-08T02:08:59.236Z,98546.47
2023-08-08T02:11:26.544Z,98545.84
2023-08-08T02:13:54.757Z,98539.56
2023-08-08T02:16:23.535Z,98542.16
2023-08-08T02:18:51.066Z,98546.28
2023-08-08T02:21:21.512Z,98536.13
2023-08-08T02:23:49.991Z,98541.31
2023-08-08T02:26:17.281Z,98541.50
2023-08-08T02:28:45.029Z,98527.34
2023-08-08T02:31:12.348Z,98537.97
2023-08-08T02:33:41.067Z,98541.38
2023-08-08T02:36:08.460Z,98544.41
2023-08-08T02:38:35.953Z,98543.31
2023-08-08T02:41:03.261Z,98540.94
2023-08-08T02:43:30.813Z,98531.81
2023-08-08T02:45:58.185Z,98533.44
2023-08-08T02:48:26.231Z,98540.44
2023-08-08T02:50:55.633Z,98533.22
2023-08-08T02:53:26.050Z,98544.88
2023-08-08T02:55:53.310Z,98543.31
2023-08-08T02:58:20.629Z,98532.91
2023-08-08T03:00:48.222Z,98536.53
2023-08-08T03:03:18.038Z,98540.44
2023-08-08T03:05:47.283Z,98536.59
2023-08-08T03:08:18.555Z,98546.75
2023-08-08T03:10:46.021Z,98549.44
2023-08-08T03:13:13.842Z,98543.97
2023-08-08T03:15:42.707Z,98550.81
2023-08-08T03:18:10.559Z,98549.84
2023-08-08T03:20:37.915Z,98548.28
2023-08-08T03:23:06.498Z,98549.34
2023-08-08T03:25:35.392Z,98548.88
2023-08-08T03:28:03.762Z,98547.31
2023-08-08T03:30:31.138Z,98548.56
2023-08-08T03:32:59.213Z,98554.56
2023-08-08T03:35:26.540Z,98546.53
2023-08-08T03:37:54.004Z,98551.72
2023-08-08T03:40:21.342Z,98556.13
2023-08-08T03:42:50.083Z,98548.28
2023-08-08T03:45:17.436Z,98559.75
2023-08-08T03:47:44.709Z,98558.19
2023-08-08T03:50:13.105Z,98561.81
2023-08-08T03:52:40.606Z,98572.69
2023-08-08T03:55:12.145Z,98571.84
2023-08-08T03:57:40.596Z,98574.13
2023-08-08T04:00:09.998Z,98590.22
2023-08-08T04:02:43.391Z,98581.88
2023-08-08T04:05:10.975Z,98581.63
2023-08-08T04:07:38.421Z,98583.94
2023-08-08T04:10:06.714Z,98580.78
2023-08-08T04:12:34.306Z,98574.00
2023-08-08T04:15:02.807Z,98581.56
2023-08-08T04:17:35.544Z,98584.41
2023-08-08T04:20:02.917Z,98585.97
2023-08-08T04:22:32.259Z,98589.38
2023-08-08T04:24:59.600Z,98588.88
2023-08-08T04:27:27.065Z,98592.75
2023-08-08T04:29:54.475Z,98584.41
2023-08-08T04:32:21.745Z,98585.97
2023-08-08T04:34:50.745Z,98588.56
2023-08-08T04:37:17.967Z,98584.88
2023-08-08T04:39:45.378Z,98590.81
2023-08-08T04:42:12.854Z,98593.22
2023-08-08T04:44:40.187Z,98583.31
2023-08-08T04:47:07.883Z,98588.81
2023-08-08T04:49:35.112Z,98593.16
2023-08-08T04:52:04.098Z,98595.97
2023-08-08T04:54:31.406Z,98600.47
2023-08-08T04:56:58.905Z,98595.41
2023-08-08T04:59:26.092Z,98595.00
2023-08-08T05:01:53.469Z,98604.94
2023-08-08T05:04:20.856Z,98604.22
2023-08-08T05:06:48.236Z,98591.78
2023-08-08T05:09:17.091Z,98594.25
2023-08-08T05:11:44.551Z,98592.53
2023-08-08T05:14:11.841Z,98599.03
2023-08-08T05:16:39.140Z,98595.78
2023-08-08T05:19:06.543Z,98599.78
2023-08-08T05:21:33.805Z,98600.94
2023-08-08T05:24:01.398Z,98595.38
2023-08-08T05:26:30.272Z,98600.31
2023-08-08T05:28:57.599Z,98609.19
2023-08-08T05:31:24.812Z,98604.88
2023-08-08T05:33:52.160Z,98607.06
2023-08-08T05:36:19.436Z,98612.69
2023-08-08T05:38:46.744Z,98613.22
2023-08-08T05:41:13.967Z,98606.50
2023-08-08T05:43:42.647Z,98598.50
2023-08-08T05:46:10.010Z,98601.84
2023-08-08T05:48:37.316Z,98605.91
2023-08-08T05:51:06.189Z,98603.63
2023-08-08T05:53:33.881Z,98604.91
2023-08-08T05:56:01.413Z,98606.19
2023-08-08T05:58:28.761Z,98598.34
2023-08-08T06:00:57.461Z,98614.00
2023-08-08T06:03:24.900Z,98603.63
2023-08-08T06:05:52.148Z,98614.34
2023-08-08T06:08:19.708Z,98609.41
2023-08-08T06:10:46.964Z,98611.53
2023-08-08T06:13:14.294Z,98613.44
2023-08-08T06:15:41.663Z,98610.09
2023-08-08T06:18:10.737Z,98601.84
2023-08-08T06:20:38.370Z,98602.69
2023-08-08T06:23:06.020Z,98612.13
2023-08-08T06:25:33.232Z,98607.47
2023-08-08T06:28:00.716Z,98614.53
2023-08-08T06:30:28.191Z,98615.00
2023-08-08T06:32:55.581Z,98606.38
2023-08-08T06:35:24.536Z,98613.38
2023-08-08T06:37:51.764Z,98616.00
2023-08-08T06:40:19.189Z,98610.66
2023-08-08T06:42:46.696Z,98622.81
2023-08-08T06:45:14.261Z,98612.47
2023-08-08T06:47:41.561Z,98614.09
2023-08-08T06:50:09.886Z,98620.19
2023-08-08T06:52:38.617Z,98616.81
2023-08-08T06:55:06.825Z,98622.84
2023-08-08T06:57:34.938Z,98612.34
2023-08-08T07:00:02.310Z,98633.44
2023-08-08T07:02:32.169Z,98641.78
2023-08-08T07:04:59.915Z,98630.06
2023-08-08T07:07:27.569Z,98628.56
2023-08-08T07:09:56.295Z,98627.78
2023-08-08T07:12:23.568Z,98634.34
2023-08-08T07:14:50.873Z,98628.56
2023-08-08T07:17:18.531Z,98636.44
2023-08-08T07:19:45.868Z,98627.28
2023-08-08T07:22:13.193Z,98632.25
2023-08-08T07:24:40.738Z,98624.41
2023-08-08T07:27:09.683Z,98624.41
2023-08-08T07:29:37.048Z,98628.56
2023-08-08T07:32:05.717Z,98632.25
2023-08-08T07:34:33.560Z,98631.19
2023-08-08T07:37:01.304Z,98641.13
2023-08-08T07:39:29.003Z,98644.25
2023-08-08T07:41:56.440Z,98641.66
2023-08-08T07:44:25.160Z,98646.88
2023-08-08T07:46:52.655Z,98640.59
2023-08-08T07:49:20.362Z,98650.53
2023-08-08T07:51:47.744Z,98644.50
2023-08-08T07:54:14.961Z,98653.66
2023-08-08T07:56:43.967Z,98663.28
2023-08-08T07:59:11.353Z,98660.38
2023-08-08T08:01:40.493Z,98654.59
2023-08-08T08:04:08.531Z,98646.50
2023-08-08T08:06:35.842Z,98653.56
2023-08-08T08:09:04.511Z,98650.94
2023-08-08T08:11:31.747Z,98655.59
2023-08-08T08:13:59.082Z,98651.81
2023-08-08T08:16:26.629Z,98649.63
2023-08-08T08:18:55.334Z,98663.19
2023-08-08T08:21:22.731Z,98655.34
2023-08-08T08:23:50.043Z,98651.94
2023-08-08T08:26:17.396Z,98651.03
2023-08-08T08:28:44.744Z,98650.34
2023-08-08T08:31:12.110Z,98652.69
2023-08-08T08:33:39.384Z,98654.00
2023-08-08T08:36:08.181Z,98657.94
2023-08-08T08:38:35.499Z,98668.75
2023-08-08T08:41:04.571Z,98663.25
2023-08-08T08:43:32.226Z,98673.56
2023-08-08T08:46:02.263Z,98673.66
2023-08-08T08:48:29.684Z,98670.28
2023-08-08T08:50:57.042Z,98681.50
2023-08-08T08:53:26.075Z,98675.94
2023-08-08T08:55:54.975Z,98668.47
2023-08-08T08:58:23.608Z,98672.88
2023-08-08T09:00:52.196Z,98661.16
2023-08-08T09:03:20.933Z,98671.50
2023-08-08T09:05:49.379Z,98669.97
2023-08-08T09:08:17.909Z,98668.81
2023-08-08T09:10:46.744Z,98661.09
2023-08-08T09:13:14.173Z,98665.69
2023-08-08T09:15:41.829Z,98663.84
2023-08-08T09:18:09.390Z,98672.03
2023-08-08T09:20:36.956Z,98667.56
2023-08-08T09:23:04.441Z,98680.41
2023-08-08T09:25:31.746Z,98685.97
2023-08-08T09:28:00.825Z,98689.63
2023-08-08T09:30:28.618Z,98680.69
2023-08-08T09:32:59.640Z,98680.41
2023-08-08T09:35:27.152Z,98681.19
2023-08-08T09:37:55.732Z,98671.75
2023-08-08T09:40:24.384Z,98677.91
2023-08-08T09:42:52.555Z,98681.00
2023-08-08T09:45:22.006Z,98679.34
2023-08-08T09:47:50.819Z,98682.19
2023-08-08T09:50:19.679Z,98683.59
2023-08-08T09:52:47.684Z,98690.50
2023-08-08T09:55:16.153Z,98699.28
2023-08-08T09:57:43.838Z,98691.19
2023-08-08T10:00:17.097Z,98682.28
2023-08-08T10:02:47.789Z,98684.53
2023-08-08T10:05:17.356Z,98688.84
2023-08-08T10:07:45.463Z,98685.06
2023-08-08T10:10:12.901Z,98683.44
2023-08-08T10:12:41.102Z,98684.28
2023-08-08T10:15:09.902Z,98685.28
2023-08-08T10:17:38.367Z,98687.44
2023-08-08T10:20:13.550Z,98688.75
2023-08-08T10:22:44.638Z,98687.75
2023-08-08T10:25:19.859Z,98691.47
2023-08-08T10:27:47.295Z,98690.97
2023-08-08T10:30:15.523Z,98695.94
2023-08-08T10:32:44.790Z,98693.13
2023-08-08T10:35:13.949Z,98692.34
2023-08-08T10:37:42.352Z,98699.47
2023-08-08T10:40:12.627Z,98700.03
2023-08-08T10:42:46.987Z,98697.69
2023-08-08T10:45:16.425Z,98697.53
2023-08-08T10:47:46.361Z,98697.31
2023-08-08T10:50:17.329Z,98715.13
2023-08-08T10:52:56.149Z,98724.06
2023-08-08T10:55:24.861Z,98727.00
2023-08-08T10:57:57.270Z,98716.56
2023-08-08T11:00:27.877Z,98729.47
2023-08-08T11:02:56.974Z,98717.97
2023-08-08T11:05:28.856Z,98721.66
2023-08-08T11:07:56.800Z,98721.91
2023-08-08T11:10:24.435Z,98720.53
2023-08-08T11:12:57.716Z,98720.25
2023-08-08T11:15:25.173Z,98722.78
2023-08-08T11:17:53.857Z,98733.22
2023-08-08T11:20:21.955Z,98729.50
2023-08-08T11:22:53.805Z,98728.13
2023-08-08T11:25:21.806Z,98719.28
2023-08-08T11:27:53.155Z,98723.22
2023-08-08T11:30:20.704Z,98731.75
2023-08-08T11:33:15.370Z,98735.47
2023-08-08T11:35:36.576Z,98732.03
2023-08-08T11:38:06.054Z,98740.84
2023-08-08T11:40:33.996Z,98728.06
2023-08-08T11:43:02.082Z,98731.00
2023-08-08T11:45:29.601Z,98734.59
2023-08-08T11:47:57.766Z,98725.22
2023-08-08T11:50:28.529Z,98729.03
2023-08-08T11:52:56.739Z,98723.22
2023-08-08T11:55:30.469Z,98726.09
2023-08-08T11:58:01.025Z,98730.31
2023-08-08T12:00:31.213Z,98725.19
2023-08-08T12:03:00.007Z,98728.81
2023-08-08T12:05:27.976Z,98725.66
2023-08-08T12:07:55.258Z,98726.72
2023-08-08T12:10:24.993Z,98736.69
2023-08-08T12:12:58.269Z,98732.00
2023-08-08T12:15:29.746Z,98738.22
2023-08-08T12:18:16.048Z,98734.81
2023-08-08T12:20:43.416Z,98728.56
2023-08-08T12:23:11.158Z,98736.09
2023-08-08T12:25:39.524Z,98735.63
2023-08-08T12:28:08.394Z,98733.06
2023-08-08T12:30:35.832Z,98731.75
2023-08-08T12:33:03.227Z,98731.47
2023-08-08T12:35:30.615Z,98728.66
2023-08-08T12:37:58.016Z,98735.00
2023-08-08T12:40:26.577Z,98731.19
2023-08-08T12:42:53.874Z,98735.28
2023-08-08T12:45:23.049Z,98734.91
2023-08-08T12:47:50.355Z,98737.97
2023-08-08T12:50:17.939Z,98737.34
2023-08-08T12:52:45.220Z,98731.75
2023-08-08T12:55:13.225Z,98741.56
2023-08-08T12:57:41.784Z,98736.38
2023-08-08T13:00:10.217Z,98739.06
2023-08-08T13:02:39.741Z,98732.25
2023-08-08T13:05:08.417Z,98733.94
2023-08-08T13:07:35.676Z,98731.44
2023-08-08T13:10:03.032Z,98725.41
2023-08-08T13:12:31.988Z,98724.84
2023-08-08T13:14:59.682Z,98718.59
2023-08-08T13:17:27.076Z,98719.69
2023-08-08T13:19:55.910Z,98730.63
2023-08-08T13:22:23.476Z,98732.81
2023-08-08T13:24:51.037Z,98728.44
2023-08-08T13:27:18.257Z,98729.78
2023-08-08T13:29:45.602Z,98721.22
2023-08-08T13:32:12.933Z,98724.78
2023-08-08T13:34:40.252Z,98727.78
2023-08-08T13:37:09.130Z,98723.09
2023-08-08T13:39:36.630Z,98729.34
2023-08-08T13:42:04.658Z,98721.44
2023-08-08T13:44:32.438Z,98729.56
2023-08-08T13:46:59.828Z,98723.75
2023-08-08T13:49:27.736Z,98730.28
2023-08-08T13:51:55.684Z,98716.53
2023-08-08T13:54:24.351Z,98727.97
2023-08-08T13:56:51.850Z,98728.59
2023-08-08T13:59:19.092Z,98729.22
2023-08-08T14:01:46.467Z,98726.59
2023-08-08T14:04:13.830Z,98722.25
2023-08-08T14:06:41.159Z,98726.81
2023-08-08T14:09:10.460Z,98727.94
2023-08-08T14:11:39.755Z,98730.78
2023-08-08T14:14:07.336Z,98726.69
2023-08-08T14:16:34.783Z,98732.16
2023-08-08T14:19:02.033Z,98739.84
2023-08-08T14:21:29.304Z,98725.97
2023-08-08T14:23:56.854Z,98726.84
2023-08-08T14:26:24.480Z,98727.28
2023-08-08T14:28:56.017Z,98729.22
2023-08-08T14:31:23.629Z,98734.94
2023-08-08T14:33:51.106Z,98730.19
2023-08-08T14:36:18.472Z,98738.19
2023-08-08T14:38:46.677Z,98727.31
2023-08-08T14:41:14.455Z,98731.81
2023-08-08T14:43:41.741Z,98731.09
2023-08-08T14:46:10.480Z,98741.72
2023-08-08T14:48:38.256Z,98732.66
2023-08-08T14:51:05.525Z,98737.53
2023-08-08T14:53:33.137Z,98738.72
2023-08-08T14:56:01.051Z,98735.69
2023-08-08T14:58:28.320Z,98735.75
2023-08-08T15:00:56.194Z,98736.06
2023-08-08T15:03:25.238Z,98748.47
2023-08-08T15:05:52.498Z,98738.88
2023-08-08T15:08:19.900Z,98740.75
2023-08-08T15:10:47.198Z,98741.91
2023-08-08T15:13:14.604Z,98752.84
2023-08-08T15:15:42.029Z,98757.75
2023-08-08T15:18:09.614Z,98741.31
2023-08-08T15:20:38.344Z,98747.41
2023-08-08T15:23:05.623Z,98745.94
2023-08-08T15:25:32.968Z,98749.09
2023-08-08T15:28:00.276Z,98745.25
2023-08-08T15:30:27.765Z,98740.28
2023-08-08T15:32:55.310Z,98755.81
2023-08-08T15:35:22.851Z,98774.22
2023-08-08T15:37:51.586Z,98775.31
2023-08-08T15:40:18.853Z,98757.53
2023-08-08T15:42:47.667Z,98773.53
2023-08-08T15:45:15.052Z,98780.88
2023-08-08T15:47:42.385Z,98784.81
2023-08-08T15:50:10.452Z,98774.09
2023-08-08T15:52:38.398Z,98776.47
2023-08-08T15:55:09.856Z,98788.53
2023-08-08T15:57:37.975Z,98778.59
2023-08-08T16:00:07.313Z,98785.16
2023-08-08T16:02:40.340Z,98784.66
2023-08-08T16:05:08.332Z,98782.81
2023-08-08T16:07:35.645Z,98792.75
2023-08-08T16:10:03.470Z,98794.34
2023-08-08T16:12:33.737Z,98796.75
2023-08-08T16:15:01.206Z,98803.00
2023-08-08T16:17:32.723Z,98800.66
2023-08-08T16:20:00.911Z,98803.78
2023-08-08T16:22:28.279Z,98816.34
2023-08-08T16:24:55.424Z,98803.53
2023-08-08T16:27:22.914Z,98805.63
2023-08-08T16:29:51.622Z,98831.00
2023-08-08T16:32:19.105Z,98823.69
2023-08-08T16:34:46.899Z,98823.44
2023-08-08T16:37:14.476Z,98827.34
2023-08-08T16:39:41.728Z,98833.63
2023-08-08T16:42:09.594Z,98838.59
2023-08-08T16:44:37.030Z,98835.72
2023-08-08T16:47:07.697Z,98848.25
2023-08-08T16:49:35.242Z,98840.41
2023-08-08T16:52:03.272Z,98844.59
2023-08-08T16:54:34.523Z,98862.66
2023-08-08T16:57:02.258Z,98860.25
2023-08-08T16:59:29.741Z,98863.91
2023-08-08T17:01:57.083Z,98855.22
2023-08-08T17:04:25.750Z,98858.09
2023-08-08T17:06:53.115Z,98869.56
2023-08-08T17:09:20.404Z,98872.69
2023-08-08T17:11:47.660Z,98879.44
2023-08-08T17:14:15.259Z,98878.88
2023-08-08T17:16:42.698Z,98882.75
2023-08-08T17:19:11.077Z,98873.34
2023-08-08T17:21:39.742Z,98881.41
2023-08-08T17:24:07.482Z,98898.59
2023-08-08T17:26:34.650Z,98891.16
2023-08-08T17:29:02.244Z,98898.66
2023-08-08T17:31:29.812Z,98891.09
2023-08-08T17:33:59.277Z,98890.00
2023-08-08T17:36:27.175Z,98890.28
2023-08-08T17:38:55.797Z,98905.63
2023-08-08T17:41:23.088Z,98904.31
2023-08-08T17:43:50.349Z,98910.81
2023-08-08T17:46:17.862Z,98917.56
2023-08-08T17:48:45.139Z,98914.69
2023-08-08T17:51:12.678Z,98909.66
2023-08-08T17:53:39.936Z,98915.91
2023-08-08T17:56:08.653Z,98923.47
2023-08-08T17:58:36.155Z,98918.75
2023-08-08T18:01:03.548Z,98919.00
2023-08-08T18:03:30.983Z,98928.16
2023-08-08T18:05:58.319Z,98934.41
2023-08-08T18:08:25.538Z,98928.41
2023-08-08T18:10:52.846Z,98934.13
2023-08-08T18:13:21.545Z,98932.22
2023-08-08T18:15:50.416Z,98930.91
2023-08-08T18:18:17.864Z,98925.13
2023-08-08T18:20:45.340Z,98926.72
2023-08-08T18:23:12.770Z,98929.56
2023-08-08T18:25:43.534Z,98930.88
2023-08-08T18:28:10.953Z,98928.19
2023-08-08T18:30:39.831Z,98926.84
2023-08-08T18:33:07.434Z,98930.22
2023-08-08T18:35:34.748Z,98930.44
2023-08-08T18:38:02.067Z,98929.88
2023-08-08T18:40:29.470Z,98932.50
2023-08-08T18:42:56.914Z,98931.72
2023-08-08T18:45:24.526Z,98929.66
2023-08-08T18:47:53.246Z,98940.09
2023-08-08T18:50:20.935Z,98925.22
2023-08-08T18:52:50.547Z,98933.28
2023-08-08T18:55:19.983Z,98922.63
2023-08-08T18:57:47.319Z,98929.16
2023-08-08T19:00:14.831Z,98930.72
2023-08-08T19:02:43.346Z,98937.47
2023-08-08T19:05:12.364Z,98935.91
2023-08-08T19:07:39.719Z,98943.72
2023-08-08T19:10:08.415Z,98943.72
2023-08-08T19:12:36.366Z,98946.88
2023-08-08T19:15:04.058Z,98946.38
2023-08-08T19:17:41.773Z,98944.31
2023-08-08T19:20:18.592Z,98945.59
2023-08-08T19:22:45.925Z,98950.00
2023-08-08T19:25:13.209Z,98953.13
2023-08-08T19:27:40.621Z,98947.69
2023-08-08T19:30:10.406Z,98957.03
2023-08-08T19:32:37.821Z,98962.03
2023-08-08T19:35:06.071Z,98947.16
2023-08-08T19:37:34.926Z,98951.31
2023-08-08T19:40:02.810Z,98947.84
2023-08-08T19:42:32.040Z,98937.94
2023-08-08T19:44:59.400Z,98931.91
2023-08-08T19:47:26.715Z,98924.03
2023-08-08T19:49:54.179Z,98926.44
2023-08-08T19:52:21.521Z,98936.34
2023-08-08T19:54:50.647Z,98930.81
2023-08-08T19:57:17.985Z,98936.53
2023-08-08T19:59:45.306Z,98927.84
2023-08-08T20:02:13.472Z,98921.28
2023-08-08T20:04:40.724Z,98923.03
2023-08-08T20:07:08.184Z,98926.09
2023-08-08T20:09:35.376Z,98929.69
2023-08-08T20:12:04.560Z,98930.66
2023-08-08T20:14:33.095Z,98940.78
2023-08-08T20:17:00.723Z,98930.59
2023-08-08T20:19:28.260Z,98922.78
2023-08-08T20:21:57.479Z,98926.41
2023-08-08T20:24:28.037Z,98925.88
2023-08-08T20:26:55.297Z,98923.75
2023-08-08T20:29:23.973Z,98921.03
2023-08-08T20:31:51.338Z,98929.59
2023-08-08T20:34:18.776Z,98926.91
2023-08-08T20:36:46.178Z,98927.72
2023-08-08T20:39:16.249Z,98928.72
2023-08-08T20:41:44.603Z,98932.63
2023-08-08T20:44:11.938Z,98932.28
2023-08-08T20:46:40.553Z,98919.22
2023-08-08T20:49:08.216Z,98922.84
2023-08-08T20:51:35.610Z,98921.28
2023-08-08T20:54:03.238Z,98912.91
2023-08-08T20:56:30.617Z,98913.38
2023-08-08T20:58:57.819Z,98911.00
2023-08-08T21:01:25.525Z,98912.28
2023-08-08T21:03:54.141Z,98913.56
2023-08-08T21:06:21.301Z,98920.03
2023-08-08T21:08:48.480Z,98920.03
2023-08-08T21:11:15.673Z,98917.66
2023-08-08T21:13:43.407Z,98909.06
2023-08-08T21:16:11.352Z,98908.53
2023-08-08T21:18:39.133Z,98906.94
2023-08-08T21:21:07.725Z,98915.56
2023-08-08T21:23:35.025Z,98905.38
2023-08-08T21:26:02.354Z,98919.66
2023-08-08T21:28:30.533Z,98921.94
2023-08-08T21:30:58.031Z,98922.41
2023-08-08T21:33:25.272Z,98916.66
2023-08-08T21:35:52.684Z,98912.94
2023-08-08T21:38:21.645Z,98910.56
2023-08-08T21:40:49.017Z,98907.44
2023-08-08T21:43:16.486Z,98913.91
2023-08-08T21:45:43.863Z,98903.97
2023-08-08T21:48:11.234Z,98909.66
2023-08-08T21:50:38.667Z,98913.50
2023-08-08T21:53:06.245Z,98909.09
2023-08-08T21:55:34.916Z,98904.13
2023-08-08T21:58:03.329Z,98908.09
2023-08-08T22:00:30.825Z,98904.47
2023-08-08T22:02:58.194Z,98907.59
2023-08-08T22:05:25.718Z,98915.97
2023-08-08T22:07:53.082Z,98922.75
2023-08-08T22:10:20.906Z,98914.38
2023-08-08T22:12:55.660Z,98914.38
2023-08-08T22:15:23.181Z,98910.41
2023-08-08T22:18:04.763Z,98907.50
2023-08-08T22:20:33.657Z,98904.59
2023-08-08T22:23:13.720Z,98900.19
2023-08-08T22:25:45.304Z,98908.53
2023-08-08T22:28:14.018Z,98910.59
2023-08-08T22:30:41.313Z,98912.88
2023-08-08T22:33:08.612Z,98907.31
2023-08-08T22:35:36.147Z,98907.25
2023-08-08T22:38:03.887Z,98913.94
2023-08-08T22:40:31.320Z,98912.38
2023-08-08T22:42:58.741Z,98914.19
2023-08-08T22:45:28.942Z,98914.19
2023-08-08T22:47:56.644Z,98907.66
2023-08-08T22:50:24.668Z,98911.25
2023-08-08T22:52:52.185Z,98903.16
2023-08-08T22:55:19.441Z,98912.44
2023-08-08T22:57:47.126Z,98903.50
2023-08-08T23:00:15.200Z,98907.97
2023-08-08T23:02:44.043Z,98910.78
2023-08-08T23:05:11.382Z,98901.16
2023-08-08T23:07:39.384Z,98908.97
2023-08-08T23:10:07.753Z,98895.88
2023-08-08T23:12:34.994Z,98901.63
2023-08-08T23:15:02.275Z,98898.22
2023-08-08T23:17:37.568Z,98902.66
2023-08-08T23:20:07.548Z,98895.63
2023-08-08T23:22:34.784Z,98904.38
2023-08-08T23:25:02.140Z,98903.59
2023-08-08T23:27:32.706Z,98900.13
2023-08-08T23:29:59.948Z,98908.13
2023-08-08T23:32:27.369Z,98897.75
2023-08-08T23:34:55.042Z,98895.41
2023-08-08T23:37:23.725Z,98895.94
2023-08-08T23:39:51.014Z,98899.31
2023-08-08T23:42:18.744Z,98901.69
2023-08-08T23:44:46.380Z,98905.09
2023-08-08T23:47:13.887Z,98906.09
2023-08-08T23:49:41.066Z,98888.34
2023-08-08T23:52:08.405Z,98891.44
2023-08-08T23:54:37.178Z,98890.50
2023-08-08T23:57:05.213Z,98894.91
2023-08-08T23:59:32.883Z,98889.50
